Time;durP1;ratioP1;P1;durP2;ratioP2;P2;SDS_P1;SDS_P2;PMS_P1;PMS_P2;Temp;Humidity;BMP_temperature;BMP_pressure;BME280_temperature;BME280_humidity;BME280_pressure;Samples;Min_cycle;Max_cycle;Signal;HPM_P1;HPM_P2
2022/07/13 00:02:54;;;;;;;;;;;26.10;40.10;;;;;;8330017;28;20281;-44
2022/07/13 00:06:54;;;;;;;;;;;26.20;40.20;;;;;;8329711;28;19929;-44
2022/07/13 00:10:55;;;;;;;;;;;26.20;40.20;;;;;;8329349;28;19917;-44
2022/07/13 00:14:55;;;;;;;;;;;26.10;40.10;;;;;;8333135;28;19917;-44
2022/07/13 00:18:55;;;;;;;;;;;26.10;40.20;;;;;;8335686;28;19925;-44
2022/07/13 00:22:56;;;;;;;;;;;26.10;40.10;;;;;;8335118;28;19970;-44
2022/07/13 00:26:56;;;;;;;;;;;26.10;40.20;;;;;;8335522;28;19977;-43
2022/07/13 00:30:57;;;;;;;;;;;26.10;40.20;;;;;;8335460;28;19913;-43
2022/07/13 00:34:57;;;;;;;;;;;26.10;40.70;;;;;;8334629;28;19960;-43
2022/07/13 00:38:58;;;;;;;;;;;26.10;40.20;;;;;;8335035;28;20055;-43
2022/07/13 00:42:58;;;;;;;;;;;26.10;40.20;;;;;;8335068;28;19917;-42
2022/07/13 00:46:59;;;;;;;;;;;26.10;40.20;;;;;;8334371;28;20400;-43
2022/07/13 00:50:59;;;;;;;;;;;26.00;40.10;;;;;;8334926;28;20000;-44
2022/07/13 00:55:00;;;;;;;;;;;26.00;40.10;;;;;;8334480;28;20316;-43
2022/07/13 00:59:00;;;;;;;;;;;26.00;40.10;;;;;;8334168;28;19945;-43
2022/07/13 01:03:01;;;;;;;;;;;26.00;40.10;;;;;;8334602;28;20000;-43
2022/07/13 01:07:01;;;;;;;;;;;26.00;40.20;;;;;;8309255;28;19933;-43
2022/07/13 01:11:02;;;;;;;;;;;25.90;40.10;;;;;;8333844;28;19913;-43
2022/07/13 01:15:03;;;;;;;;;;;26.00;40.70;;;;;;8333905;28;19949;-43
2022/07/13 01:19:04;;;;;;;;;;;25.90;40.10;;;;;;8333793;28;20016;-43
2022/07/13 01:23:11;;;;;;;;;;;25.90;40.20;;;;;;8333211;28;19917;-43
2022/07/13 01:27:12;;;;;;;;;;;25.90;40.10;;;;;;8333686;28;20034;-43
2022/07/13 01:31:24;;;;;;;;;;;25.90;40.20;;;;;;8333647;28;20433;-43
2022/07/13 01:35:24;;;;;;;;;;;25.90;40.20;;;;;;8332849;28;19928;-43
2022/07/13 01:39:25;;;;;;;;;;;25.90;40.20;;;;;;8333506;28;20255;-44
2022/07/13 01:43:28;;;;;;;;;;;25.90;40.20;;;;;;8333130;28;19921;-43
2022/07/13 01:47:28;;;;;;;;;;;25.90;40.20;;;;;;8332963;28;19929;-43
2022/07/13 01:51:28;;;;;;;;;;;25.80;40.10;;;;;;8333032;28;20443;-43
2022/07/13 01:55:29;;;;;;;;;;;25.90;40.20;;;;;;8332371;28;19924;-45
2022/07/13 01:59:29;;;;;;;;;;;25.80;40.20;;;;;;8332676;28;19917;-43
2022/07/13 02:03:31;;;;;;;;;;;25.80;40.20;;;;;;8332804;28;19913;-43
2022/07/13 02:07:31;;;;;;;;;;;25.80;40.20;;;;;;8331944;28;20039;-42
2022/07/13 02:11:32;;;;;;;;;;;25.80;40.20;;;;;;8332407;28;20432;-42
2022/07/13 02:15:32;;;;;;;;;;;25.80;40.20;;;;;;8332045;28;19924;-42
2022/07/13 02:19:33;;;;;;;;;;;25.80;40.30;;;;;;8331480;28;19920;-43
2022/07/13 02:23:33;;;;;;;;;;;25.80;40.20;;;;;;8332023;28;19917;-42
2022/07/13 02:27:34;;;;;;;;;;;25.70;40.20;;;;;;8331949;28;19932;-42
2022/07/13 02:31:34;;;;;;;;;;;25.70;40.30;;;;;;8331263;28;19971;-42
2022/07/13 02:35:35;;;;;;;;;;;25.70;40.20;;;;;;8331213;28;19917;-42
2022/07/13 02:39:35;;;;;;;;;;;25.70;40.30;;;;;;8331314;28;20020;-42
2022/07/13 02:43:36;;;;;;;;;;;25.70;40.20;;;;;;8330667;28;19917;-42
2022/07/13 02:47:37;;;;;;;;;;;25.70;40.30;;;;;;8331107;28;20349;-43
2022/07/13 02:51:37;;;;;;;;;;;25.70;40.30;;;;;;8331396;28;19921;-44
2022/07/13 02:55:38;;;;;;;;;;;25.70;40.30;;;;;;8330575;28;19932;-42
2022/07/13 02:59:38;;;;;;;;;;;25.60;40.20;;;;;;8331131;28;19921;-43
2022/07/13 03:03:39;;;;;;;;;;;25.60;40.30;;;;;;8330755;28;19916;-43
2022/07/13 03:07:39;;;;;;;;;;;25.70;40.30;;;;;;8330190;28;19925;-45
2022/07/13 03:11:39;;;;;;;;;;;25.60;40.20;;;;;;8330772;28;19924;-43
2022/07/13 03:15:40;;;;;;;;;;;25.60;40.30;;;;;;8330577;28;19917;-44
2022/07/13 03:19:40;;;;;;;;;;;25.60;40.20;;;;;;8329958;28;19913;-42
2022/07/13 03:23:41;;;;;;;;;;;25.60;40.30;;;;;;8330248;28;19971;-43
2022/07/13 03:27:41;;;;;;;;;;;25.60;40.30;;;;;;8330721;28;19929;-43
2022/07/13 03:31:42;;;;;;;;;;;25.60;40.30;;;;;;8329934;28;19917;-42
2022/07/13 03:35:42;;;;;;;;;;;25.60;40.30;;;;;;8330138;28;19917;-43
2022/07/13 03:39:42;;;;;;;;;;;25.60;40.30;;;;;;8344138;28;19917;-43
2022/07/13 03:43:43;;;;;;;;;;;25.60;40.30;;;;;;8354459;28;19918;-43
2022/07/13 03:47:44;;;;;;;;;;;25.60;40.40;;;;;;8330389;28;20340;-43
2022/07/13 03:51:46;;;;;;;;;;;25.50;40.30;;;;;;8336558;28;19917;-43
2022/07/13 03:55:47;;;;;;;;;;;25.50;40.30;;;;;;8335997;28;20377;-43
2022/07/13 03:59:47;;;;;;;;;;;25.50;40.30;;;;;;8336608;28;19917;-43
2022/07/13 04:03:47;;;;;;;;;;;25.50;40.40;;;;;;8336174;28;19920;-43
2022/07/13 04:07:48;;;;;;;;;;;25.50;40.40;;;;;;8335779;28;19971;-43
2022/07/13 04:11:48;;;;;;;;;;;25.40;40.30;;;;;;8310898;28;19921;-43
2022/07/13 04:15:49;;;;;;;;;;;25.40;40.30;;;;;;8318076;28;20216;-43
2022/07/13 04:19:49;;;;;;;;;;;25.40;40.30;;;;;;8335224;28;20371;-43
2022/07/13 04:23:50;;;;;;;;;;;25.40;40.30;;;;;;8335489;28;19914;-44
2022/07/13 04:27:50;;;;;;;;;;;25.40;40.30;;;;;;8335927;28;19925;-43
2022/07/13 04:31:51;;;;;;;;;;;25.40;40.30;;;;;;8334812;28;20282;-44
2022/07/13 04:35:51;;;;;;;;;;;25.40;40.30;;;;;;8335076;28;19996;-43
2022/07/13 04:39:52;;;;;;;;;;;25.40;40.30;;;;;;8335232;28;19917;-43
2022/07/13 04:43:52;;;;;;;;;;;25.40;40.30;;;;;;8334537;28;19924;-43
2022/07/13 04:47:53;;;;;;;;;;;25.40;40.30;;;;;;8334853;28;19921;-43
2022/07/13 04:51:53;;;;;;;;;;;25.40;40.30;;;;;;8334766;28;19970;-44
2022/07/13 04:55:53;;;;;;;;;;;25.30;40.20;;;;;;8334044;28;19924;-43
2022/07/13 04:59:54;;;;;;;;;;;25.30;40.30;;;;;;8334170;28;19976;-43
2022/07/13 05:03:54;;;;;;;;;;;25.30;40.30;;;;;;8334409;28;20016;-43
2022/07/13 05:07:55;;;;;;;;;;;25.30;40.30;;;;;;8333794;28;20316;-44
2022/07/13 05:11:55;;;;;;;;;;;25.30;40.30;;;;;;8334259;28;20370;-43
2022/07/13 05:15:55;;;;;;;;;;;25.30;40.30;;;;;;8333998;28;19917;-43
2022/07/13 05:19:56;;;;;;;;;;;25.30;40.30;;;;;;8333349;28;19944;-43
2022/07/13 05:23:56;;;;;;;;;;;25.30;40.30;;;;;;8333739;28;19939;-43
2022/07/13 05:27:57;;;;;;;;;;;25.30;40.30;;;;;;8334313;28;19925;-44
2022/07/13 05:31:57;;;;;;;;;;;25.40;40.10;;;;;;8332970;28;19924;-43
2022/07/13 05:36:01;;;;;;;;;;;25.50;40.00;;;;;;8333304;28;19920;-43
2022/07/13 05:40:02;;;;;;;;;;;25.50;39.80;;;;;;8333342;28;20000;-42
2022/07/13 05:44:03;;;;;;;;;;;25.50;39.80;;;;;;8332411;28;20286;-43
2022/07/13 05:48:03;;;;;;;;;;;25.50;39.80;;;;;;8333154;28;19921;-42
2022/07/13 05:52:04;;;;;;;;;;;25.50;39.80;;;;;;8332764;28;20438;-43
2022/07/13 05:56:04;;;;;;;;;;;25.50;39.90;;;;;;8332068;28;20408;-43
2022/07/13 06:00:08;;;;;;;;;;;25.40;39.90;;;;;;8332823;28;19924;-43
2022/07/13 06:04:08;;;;;;;;;;;25.40;39.90;;;;;;8332633;28;20334;-45
2022/07/13 06:08:08;;;;;;;;;;;25.40;40.00;;;;;;8332108;28;19924;-42
2022/07/13 06:12:09;;;;;;;;;;;25.40;40.00;;;;;;8331440;28;19999;-42
2022/07/13 06:16:09;;;;;;;;;;;25.40;40.00;;;;;;8332101;28;19917;-42
2022/07/13 06:20:10;;;;;;;;;;;25.40;40.10;;;;;;8331558;28;19925;-42
2022/07/13 06:24:10;;;;;;;;;;;25.30;40.10;;;;;;8332184;28;19925;-44
2022/07/13 06:28:11;;;;;;;;;;;25.30;40.10;;;;;;8332004;28;19925;-45
2022/07/13 06:32:11;;;;;;;;;;;25.30;40.10;;;;;;8331145;28;19963;-44
2022/07/13 06:36:12;;;;;;;;;;;25.30;40.10;;;;;;8331656;28;19924;-43
2022/07/13 06:40:12;;;;;;;;;;;25.30;40.10;;;;;;8331287;28;19923;-43
2022/07/13 06:44:13;;;;;;;;;;;25.30;40.10;;;;;;8330762;28;19917;-43
2022/07/13 06:48:14;;;;;;;;;;;25.30;40.10;;;;;;8331310;28;19921;-43
2022/07/13 06:52:14;;;;;;;;;;;25.30;40.10;;;;;;8331101;28;19917;-42
2022/07/13 06:56:15;;;;;;;;;;;25.30;40.10;;;;;;8330461;28;19917;-42
2022/07/13 07:00:15;;;;;;;;;;;25.30;40.60;;;;;;8330811;28;19917;-42
2022/07/13 07:04:16;;;;;;;;;;;25.30;40.10;;;;;;8319621;28;19914;-43
2022/07/13 07:08:16;;;;;;;;;;;25.30;40.10;;;;;;8330279;28;19925;-42
2022/07/13 07:12:16;;;;;;;;;;;25.30;40.20;;;;;;8330738;28;19928;-43
2022/07/13 07:16:17;;;;;;;;;;;25.30;40.20;;;;;;8330445;28;20397;-42
2022/07/13 07:20:18;;;;;;;;;;;25.30;40.20;;;;;;8329945;28;19924;-43
2022/07/13 07:24:18;;;;;;;;;;;25.30;40.20;;;;;;8330557;28;19937;-43
2022/07/13 07:28:19;;;;;;;;;;;25.30;40.20;;;;;;8330239;28;20374;-42
2022/07/13 07:32:19;;;;;;;;;;;25.30;40.20;;;;;;8329729;28;19917;-43
2022/07/13 07:36:21;;;;;;;;;;;25.30;40.20;;;;;;8330117;28;20024;-43
2022/07/13 07:40:22;;;;;;;;;;;25.30;40.20;;;;;;8330085;28;19917;-43
2022/07/13 07:44:22;;;;;;;;;;;25.30;40.20;;;;;;8329689;28;19967;-43
2022/07/13 07:48:23;;;;;;;;;;;25.30;40.20;;;;;;8330325;28;19928;-43
2022/07/13 07:52:23;;;;;;;;;;;25.30;40.20;;;;;;8329912;28;19921;-43
2022/07/13 07:56:24;;;;;;;;;;;25.30;40.20;;;;;;8329272;28;19929;-43
2022/07/13 08:00:25;;;;;;;;;;;25.30;40.20;;;;;;8329937;28;19916;-43
2022/07/13 08:04:25;;;;;;;;;;;25.40;40.20;;;;;;8329807;28;19917;-43
2022/07/13 08:08:26;;;;;;;;;;;25.40;40.20;;;;;;8360123;28;19961;-43
2022/07/13 08:12:26;;;;;;;;;;;25.40;40.20;;;;;;8338669;28;19986;-43
2022/07/13 08:16:27;;;;;;;;;;;25.40;40.20;;;;;;8329328;28;19940;-42
2022/07/13 08:20:27;;;;;;;;;;;25.40;40.20;;;;;;8329707;28;20358;-43
2022/07/13 08:24:27;;;;;;;;;;;25.40;40.30;;;;;;8329676;28;19913;-43
2022/07/13 08:28:28;;;;;;;;;;;25.40;40.20;;;;;;8329062;28;20382;-42
2022/07/13 08:32:28;;;;;;;;;;;25.40;40.30;;;;;;8329529;28;20283;-43
2022/07/13 08:40:48;;;;;;;;;;;25.50;40.30;;;;;;8336461;28;19978;-43
2022/07/13 08:44:48;;;;;;;;;;;25.50;40.30;;;;;;8335221;28;20294;-43
2022/07/13 08:48:49;;;;;;;;;;;25.50;40.30;;;;;;8335056;28;19925;-43
2022/07/13 08:52:50;;;;;;;;;;;25.50;40.30;;;;;;8334414;28;20011;-42
2022/07/13 08:56:50;;;;;;;;;;;25.60;40.40;;;;;;8334719;28;19924;-43
2022/07/13 09:00:51;;;;;;;;;;;25.50;40.30;;;;;;8334649;28;19918;-43
2022/07/13 09:04:51;;;;;;;;;;;25.60;40.40;;;;;;8334271;28;19921;-43
2022/07/13 09:08:52;;;;;;;;;;;25.60;40.40;;;;;;8334391;28;19936;-43
2022/07/13 09:12:52;;;;;;;;;;;25.60;40.40;;;;;;8334452;28;19917;-43
2022/07/13 09:16:53;;;;;;;;;;;25.60;40.30;;;;;;8333577;28;20046;-43
2022/07/13 09:20:55;;;;;;;;;;;25.70;40.40;;;;;;8333947;28;19918;-43
2022/07/13 09:24:56;;;;;;;;;;;25.70;40.40;;;;;;8334019;28;19917;-43
2022/07/13 09:28:59;;;;;;;;;;;25.80;40.40;;;;;;8333543;28;20301;-43
2022/07/13 09:33:00;;;;;;;;;;;25.80;40.40;;;;;;8334023;28;20317;-44
2022/07/13 09:37:11;;;;;;;;;;;25.80;40.40;;;;;;8333422;28;19913;-43
2022/07/13 09:41:14;;;;;;;;;;;25.80;40.40;;;;;;8332877;28;19917;-43
2022/07/13 09:49:41;;;;;;;;;;;25.80;40.30;;;;;;8333193;28;19933;-42
2022/07/13 09:53:42;;;;;;;;;;;25.90;40.30;;;;;;8332888;28;19924;-44
2022/07/13 09:57:45;;;;;;;;;;;25.90;40.30;;;;;;8332838;28;19917;-43
2022/07/13 10:01:46;;;;;;;;;;;25.90;40.30;;;;;;8332073;28;19948;-43
2022/07/13 10:05:47;;;;;;;;;;;25.90;40.30;;;;;;8332667;28;19936;-44
2022/07/13 10:09:48;;;;;;;;;;;26.00;40.30;;;;;;8331951;28;19932;-44
2022/07/13 10:13:48;;;;;;;;;;;26.00;40.30;;;;;;8331906;28;19953;-43
2022/07/13 10:17:49;;;;;;;;;;;26.00;40.20;;;;;;8332081;28;19917;-43
2022/07/13 10:22:09;;;;;;;;;;;26.00;40.20;;;;;;8332252;28;19970;-44
2022/07/13 10:26:24;;;;;;;;;;;26.10;40.30;;;;;;8331407;28;20342;-44
2022/07/13 10:30:25;;;;;;;;;;;26.10;40.30;;;;;;8332233;28;19921;-43
2022/07/13 10:34:45;;;;;;;;;;;26.10;40.20;;;;;;8331821;28;19918;-44
2022/07/13 10:39:06;;;;;;;;;;;26.10;40.30;;;;;;8331102;28;20468;-43
2022/07/13 10:43:06;;;;;;;;;;;26.10;40.20;;;;;;8331232;28;19918;-43
2022/07/13 10:47:08;;;;;;;;;;;26.20;40.30;;;;;;8330723;28;19948;-43
2022/07/13 10:51:15;;;;;;;;;;;26.20;40.20;;;;;;8331059;28;19923;-43
2022/07/13 10:55:16;;;;;;;;;;;26.20;40.20;;;;;;8331051;28;19914;-43
2022/07/13 10:59:36;;;;;;;;;;;26.20;40.20;;;;;;8330057;28;19928;-42
2022/07/13 11:03:44;;;;;;;;;;;26.20;40.20;;;;;;8330720;28;19917;-43
2022/07/13 11:07:45;;;;;;;;;;;26.20;40.10;;;;;;8330293;28;20019;-41
2022/07/13 11:11:50;;;;;;;;;;;26.30;40.20;;;;;;8330789;28;20006;-42
2022/07/13 11:15:52;;;;;;;;;;;26.30;40.20;;;;;;8330736;28;20366;-42
2022/07/13 11:19:57;;;;;;;;;;;26.30;40.10;;;;;;8330232;28;20366;-42
2022/07/13 11:28:28;;;;;;;;;;;26.40;40.20;;;;;;8332257;28;19932;-43
2022/07/13 11:32:28;;;;;;;;;;;26.40;40.20;;;;;;8330380;28;19917;-43
2022/07/13 11:36:29;;;;;;;;;;;26.40;40.10;;;;;;8330397;28;20015;-43
2022/07/13 11:40:31;;;;;;;;;;;26.50;40.20;;;;;;8330091;28;20290;-43
2022/07/13 11:44:32;;;;;;;;;;;26.50;40.10;;;;;;8330263;28;20024;-42
2022/07/13 11:48:32;;;;;;;;;;;26.50;40.10;;;;;;8329832;28;19929;-42
2022/07/13 11:52:33;;;;;;;;;;;26.50;40.10;;;;;;8329296;28;20051;-42
2022/07/13 11:56:33;;;;;;;;;;;26.50;40.10;;;;;;8330394;28;19918;-43
2022/07/13 12:00:34;;;;;;;;;;;26.60;40.10;;;;;;8330120;28;19988;-42
2022/07/13 12:04:39;;;;;;;;;;;26.60;40.10;;;;;;8329368;28;20363;-44
2022/07/13 12:08:40;;;;;;;;;;;26.60;40.10;;;;;;8329878;28;19967;-42
2022/07/13 12:12:40;;;;;;;;;;;26.60;40.10;;;;;;8336025;28;19917;-42
2022/07/13 12:16:41;;;;;;;;;;;26.60;40.10;;;;;;8335569;28;19924;-43
2022/07/13 12:20:42;;;;;;;;;;;26.70;40.60;;;;;;8336226;28;19913;-42
2022/07/13 12:24:43;;;;;;;;;;;26.70;40.00;;;;;;8335714;28;19948;-42
2022/07/13 12:28:44;;;;;;;;;;;26.70;40.00;;;;;;8335665;28;19924;-44
2022/07/13 12:33:00;;;;;;;;;;;26.70;40.00;;;;;;8335746;28;19971;-44
2022/07/13 12:37:00;;;;;;;;;;;26.70;40.00;;;;;;8335450;28;19917;-44
2022/07/13 12:41:01;;;;;;;;;;;26.80;40.00;;;;;;8335029;28;19913;-44
2022/07/13 12:45:14;;;;;;;;;;;26.80;40.00;;;;;;8335268;28;19924;-44
2022/07/13 12:49:14;;;;;;;;;;;26.80;39.90;;;;;;8334975;28;19925;-44
2022/07/13 12:53:15;;;;;;;;;;;26.90;40.00;;;;;;8334228;28;20012;-44
2022/07/13 12:57:16;;;;;;;;;;;26.90;40.00;;;;;;8334586;28;19917;-44
2022/07/13 13:01:35;;;;;;;;;;;26.90;40.00;;;;;;8334811;28;19913;-44
2022/07/13 13:05:38;;;;;;;;;;;26.90;39.90;;;;;;8311067;28;20004;-44
2022/07/13 13:09:39;;;;;;;;;;;26.90;40.50;;;;;;8327135;28;19935;-44
2022/07/13 13:13:39;;;;;;;;;;;26.90;39.90;;;;;;8333847;28;19925;-44
2022/07/13 13:17:40;;;;;;;;;;;27.00;39.90;;;;;;8334077;28;20008;-44
2022/07/13 13:21:40;;;;;;;;;;;27.00;40.00;;;;;;8333745;28;19956;-43
2022/07/13 13:25:41;;;;;;;;;;;27.00;39.80;;;;;;8333489;28;19920;-43
2022/07/13 13:34:00;;;;;;;;;;;27.00;39.90;;;;;;8333686;28;19949;-43
2022/07/13 13:38:01;;;;;;;;;;;27.00;39.60;;;;;;8332735;28;20386;-44
2022/07/13 13:42:01;;;;;;;;;;;27.00;39.90;;;;;;8333201;28;20417;-43
2022/07/13 13:46:02;;;;;;;;;;;27.10;40.00;;;;;;8333458;28;19996;-43
2022/07/13 13:50:03;;;;;;;;;;;27.10;39.90;;;;;;8332774;28;19925;-43
2022/07/13 13:54:03;;;;;;;;;;;27.10;40.40;;;;;;8333323;28;19917;-43
2022/07/13 13:58:04;;;;;;;;;;;27.10;40.00;;;;;;8332865;28;20000;-43
2022/07/13 14:02:04;;;;;;;;;;;27.10;39.90;;;;;;8332167;28;19914;-44
2022/07/13 14:06:05;;;;;;;;;;;27.20;39.80;;;;;;8332660;28;19945;-44
2022/07/13 14:10:07;;;;;;;;;;;27.20;39.20;;;;;;8332135;28;19932;-43
2022/07/13 14:14:07;;;;;;;;;;;27.20;39.60;;;;;;8331808;28;19924;-43
2022/07/13 14:18:08;;;;;;;;;;;27.20;38.80;;;;;;8331876;28;19944;-43
2022/07/13 14:22:08;;;;;;;;;;;27.20;39.70;;;;;;8331870;28;20000;-43
2022/07/13 14:26:08;;;;;;;;;;;27.30;39.80;;;;;;8331609;28;19920;-43
2022/07/13 14:30:09;;;;;;;;;;;27.30;39.80;;;;;;8331718;28;19929;-43
2022/07/13 14:34:10;;;;;;;;;;;27.30;39.80;;;;;;8331157;28;19921;-43
2022/07/13 14:38:11;;;;;;;;;;;27.30;39.80;;;;;;8331128;28;20064;-43
2022/07/13 14:42:12;;;;;;;;;;;27.30;39.80;;;;;;8331452;28;19920;-43
2022/07/13 14:46:12;;;;;;;;;;;27.30;39.80;;;;;;8331604;28;19913;-43
2022/07/13 14:50:13;;;;;;;;;;;27.30;39.80;;;;;;8330744;28;19935;-43
2022/07/13 14:54:13;;;;;;;;;;;27.30;39.80;;;;;;8331211;28;20355;-43
2022/07/13 14:58:14;;;;;;;;;;;27.30;39.90;;;;;;8331450;28;19917;-44
2022/07/13 15:02:14;;;;;;;;;;;27.30;39.80;;;;;;8330447;28;19921;-45
2022/07/13 15:06:16;;;;;;;;;;;27.40;39.90;;;;;;8330879;28;20358;-47
2022/07/13 15:10:16;;;;;;;;;;;27.30;39.80;;;;;;8330694;28;20337;-43
2022/07/13 15:14:17;;;;;;;;;;;27.40;39.80;;;;;;8345922;28;19917;-44
2022/07/13 15:18:17;;;;;;;;;;;27.40;39.80;;;;;;8363666;28;19917;-43
2022/07/13 15:22:18;;;;;;;;;;;27.40;39.80;;;;;;8363608;28;19920;-44
2022/07/13 15:26:18;;;;;;;;;;;27.50;39.80;;;;;;8362616;28;19971;-44
2022/07/13 15:30:19;;;;;;;;;;;27.50;39.80;;;;;;8362964;28;20051;-44
2022/07/13 15:34:19;;;;;;;;;;;27.40;39.70;;;;;;8363073;28;20015;-44
2022/07/13 15:38:20;;;;;;;;;;;27.50;39.80;;;;;;8362480;28;19999;-44
2022/07/13 15:42:20;;;;;;;;;;;27.50;39.80;;;;;;8363325;28;19920;-44
2022/07/13 15:46:22;;;;;;;;;;;27.50;39.80;;;;;;8338161;28;19971;-43
2022/07/13 15:50:22;;;;;;;;;;;27.50;39.70;;;;;;8336008;28;20390;-43
2022/07/13 15:54:22;;;;;;;;;;;27.50;39.80;;;;;;8336454;28;19917;-43
2022/07/13 15:58:23;;;;;;;;;;;27.50;39.80;;;;;;8336370;28;19917;-43
2022/07/13 16:02:23;;;;;;;;;;;27.50;39.80;;;;;;8335825;28;20452;-44
2022/07/13 16:06:24;;;;;;;;;;;27.50;39.90;;;;;;8336304;28;20007;-44
2022/07/13 16:10:24;;;;;;;;;;;27.50;39.90;;;;;;8317535;28;21751;-44
2022/07/13 16:14:25;;;;;;;;;;;27.50;39.90;;;;;;8314490;28;19924;-43
2022/07/13 16:18:25;;;;;;;;;;;27.50;39.90;;;;;;8336518;28;20333;-43
2022/07/13 16:22:28;;;;;;;;;;;27.50;39.80;;;;;;8330657;28;19917;-44
2022/07/13 16:26:28;;;;;;;;;;;27.50;39.80;;;;;;8333879;28;19956;-44
2022/07/13 16:30:28;;;;;;;;;;;27.50;39.80;;;;;;8324632;28;19917;-45
2022/07/13 16:34:29;;;;;;;;;;;27.50;39.70;;;;;;8328957;28;20349;-44
2022/07/13 16:38:29;;;;;;;;;;;27.50;39.80;;;;;;8307180;28;19921;-44
2022/07/13 16:42:30;;;;;;;;;;;27.50;39.70;;;;;;8334809;28;19995;-44
2022/07/13 16:46:30;;;;;;;;;;;27.50;39.70;;;;;;8330181;28;19955;-44
2022/07/13 16:50:32;;;;;;;;;;;27.50;39.80;;;;;;8333708;28;20002;-44
2022/07/13 16:54:32;;;;;;;;;;;27.50;39.70;;;;;;8331400;28;19929;-44
2022/07/13 16:58:32;;;;;;;;;;;27.50;39.70;;;;;;8330858;28;19917;-43
2022/07/13 17:02:33;;;;;;;;;;;27.50;40.30;;;;;;8334709;28;19972;-45
2022/07/13 17:06:33;;;;;;;;;;;27.50;39.70;;;;;;8325560;28;20393;-43
2022/07/13 17:10:34;;;;;;;;;;;27.50;39.60;;;;;;8321094;28;20324;-44
2022/07/13 17:14:35;;;;;;;;;;;27.50;39.70;;;;;;8321122;28;19924;-44
2022/07/13 17:22:55;;;;;;;;;;;27.50;39.90;;;;;;8310836;28;19924;-43
2022/07/13 17:26:56;;;;;;;;;;;27.50;39.90;;;;;;8337298;28;19926;-43
2022/07/13 17:30:56;;;;;;;;;;;27.50;39.90;;;;;;8333810;28;19928;-43
2022/07/13 17:34:57;;;;;;;;;;;27.40;39.90;;;;;;8324953;28;19917;-44
2022/07/13 17:38:57;;;;;;;;;;;27.50;40.00;;;;;;8315517;28;19917;-44
2022/07/13 17:42:58;;;;;;;;;;;27.50;40.00;;;;;;8317812;28;19917;-44
2022/07/13 17:46:58;;;;;;;;;;;27.50;40.00;;;;;;8312743;28;19953;-44
2022/07/13 17:50:58;;;;;;;;;;;27.50;40.00;;;;;;8337201;28;20349;-44
2022/07/13 17:54:59;;;;;;;;;;;27.50;40.00;;;;;;8310698;28;20286;-45
2022/07/13 17:58:59;;;;;;;;;;;27.50;40.00;;;;;;8305204;28;20447;-43
2022/07/13 18:03:00;;;;;;;;;;;27.50;40.00;;;;;;8310373;28;19928;-44
2022/07/13 18:07:01;;;;;;;;;;;27.50;40.00;;;;;;8327825;28;19929;-43
2022/07/13 18:11:01;;;;;;;;;;;27.50;40.00;;;;;;8319747;28;20294;-44
2022/07/13 18:15:02;;;;;;;;;;;27.50;40.00;;;;;;8310236;28;19924;-44
2022/07/13 18:19:03;;;;;;;;;;;27.50;40.00;;;;;;8330559;28;19924;-44
2022/07/13 18:27:22;;;;;;;;;;;27.50;40.00;;;;;;8326722;28;20270;-44
2022/07/13 18:31:23;;;;;;;;;;;27.50;40.00;;;;;;8315912;28;20007;-44
2022/07/13 18:35:23;;;;;;;;;;;27.40;40.00;;;;;;8312479;28;19921;-44
2022/07/13 18:39:23;;;;;;;;;;;27.50;40.00;;;;;;8314002;28;19925;-44
2022/07/13 18:43:24;;;;;;;;;;;27.50;40.00;;;;;;8310091;28;20298;-44
2022/07/13 18:47:24;;;;;;;;;;;27.50;39.90;;;;;;8300889;28;19930;-44
2022/07/13 18:51:25;;;;;;;;;;;27.50;40.00;;;;;;8319535;28;20008;-44
2022/07/13 18:55:25;;;;;;;;;;;27.50;40.00;;;;;;8331171;28;19917;-44
2022/07/13 18:59:26;;;;;;;;;;;27.50;40.00;;;;;;8308100;28;19917;-43
2022/07/13 19:03:26;;;;;;;;;;;27.50;40.00;;;;;;8311628;28;19917;-44
2022/07/13 19:07:27;;;;;;;;;;;27.50;39.80;;;;;;8315796;28;19925;-43
2022/07/13 19:11:27;;;;;;;;;;;27.50;39.70;;;;;;8329481;28;19918;-43
2022/07/13 19:15:29;;;;;;;;;;;27.50;39.70;;;;;;8325208;28;20425;-43
2022/07/13 19:19:31;;;;;;;;;;;27.50;39.70;;;;;;8283700;28;19925;-43
2022/07/13 19:23:31;;;;;;;;;;;27.50;39.70;;;;;;8329672;28;19967;-43
2022/07/13 19:27:34;;;;;;;;;;;27.50;39.60;;;;;;8330553;28;19925;-42
2022/07/13 19:31:36;;;;;;;;;;;27.50;39.60;;;;;;8328952;28;22352;-43
2022/07/13 19:35:37;;;;;;;;;;;27.50;39.50;;;;;;8330354;28;19917;-42
2022/07/13 19:39:37;;;;;;;;;;;27.50;39.30;;;;;;8330521;28;20298;-42
2022/07/13 19:43:38;;;;;;;;;;;27.50;39.30;;;;;;8330303;28;19924;-42
2022/07/13 19:47:39;;;;;;;;;;;27.50;39.30;;;;;;8330009;28;19995;-43
2022/07/13 19:51:40;;;;;;;;;;;27.50;39.20;;;;;;8330249;28;19979;-43
2022/07/13 19:55:40;;;;;;;;;;;27.40;39.20;;;;;;8329520;28;19921;-44
2022/07/13 19:59:43;;;;;;;;;;;27.40;39.30;;;;;;8330323;28;19917;-44
2022/07/13 20:03:53;;;;;;;;;;;27.40;39.50;;;;;;8330117;28;19948;-44
2022/07/13 20:07:53;;;;;;;;;;;27.40;39.50;;;;;;8329224;28;20024;-44
2022/07/13 20:11:54;;;;;;;;;;;27.40;39.60;;;;;;8329705;28;19917;-44
2022/07/13 20:15:54;;;;;;;;;;;27.40;39.60;;;;;;8329636;28;19979;-44
2022/07/13 20:19:55;;;;;;;;;;;27.40;39.70;;;;;;8329051;28;19940;-44
2022/07/13 20:23:55;;;;;;;;;;;27.40;39.70;;;;;;8329876;28;19940;-44
2022/07/13 20:27:55;;;;;;;;;;;27.40;39.70;;;;;;8329344;28;19937;-44
2022/07/13 20:31:56;;;;;;;;;;;27.40;39.80;;;;;;8332600;28;19921;-43
2022/07/13 20:35:57;;;;;;;;;;;27.40;39.80;;;;;;8335580;28;19956;-42
2022/07/13 20:39:58;;;;;;;;;;;27.40;39.80;;;;;;8335275;28;19916;-44
2022/07/13 20:43:58;;;;;;;;;;;27.40;39.90;;;;;;8335103;28;19940;-44
2022/07/13 20:47:58;;;;;;;;;;;27.40;39.90;;;;;;8335207;28;19932;-45
2022/07/13 20:51:59;;;;;;;;;;;27.40;39.90;;;;;;8335209;28;19996;-44
2022/07/13 20:56:00;;;;;;;;;;;27.40;39.90;;;;;;8334442;28;19917;-43
2022/07/13 21:00:00;;;;;;;;;;;27.40;39.90;;;;;;8334711;28;19925;-42
2022/07/13 21:04:01;;;;;;;;;;;27.40;39.90;;;;;;8335103;28;20341;-43
2022/07/13 21:08:01;;;;;;;;;;;27.40;39.90;;;;;;8361197;28;19970;-44
2022/07/13 21:12:02;;;;;;;;;;;27.40;39.90;;;;;;8367301;28;20388;-44
2022/07/13 21:16:03;;;;;;;;;;;27.40;40.00;;;;;;8367367;28;19939;-43
2022/07/13 21:20:10;;;;;;;;;;;27.30;39.90;;;;;;8364799;28;19917;-42
2022/07/13 21:24:10;;;;;;;;;;;27.30;39.90;;;;;;8334459;28;19928;-44
2022/07/13 21:28:11;;;;;;;;;;;27.40;40.00;;;;;;8333935;28;20370;-44
2022/07/13 21:32:11;;;;;;;;;;;27.30;39.90;;;;;;8333402;28;19921;-44
2022/07/13 21:36:11;;;;;;;;;;;27.30;40.00;;;;;;8333651;28;20004;-43
2022/07/13 21:40:12;;;;;;;;;;;27.30;39.90;;;;;;8333517;28;19913;-43
2022/07/13 21:44:12;;;;;;;;;;;27.30;39.90;;;;;;8332961;28;19937;-43
2022/07/13 21:48:13;;;;;;;;;;;27.30;40.00;;;;;;8333437;28;19929;-43
2022/07/13 21:52:13;;;;;;;;;;;27.30;40.00;;;;;;8333090;28;19917;-43
2022/07/13 21:56:14;;;;;;;;;;;27.30;40.00;;;;;;8332477;28;20378;-44
2022/07/13 22:00:14;;;;;;;;;;;27.30;40.00;;;;;;8332025;28;19913;-43
2022/07/13 22:04:15;;;;;;;;;;;27.30;40.00;;;;;;8333335;28;19924;-43
2022/07/13 22:08:15;;;;;;;;;;;27.30;40.00;;;;;;8319730;28;19968;-43
2022/07/13 22:12:34;;;;;;;;;;;27.30;40.00;;;;;;8317130;28;19940;-43
2022/07/13 22:16:53;;;;;;;;;;;27.30;40.00;;;;;;8331939;28;20293;-43
2022/07/13 22:21:13;;;;;;;;;;;27.30;40.00;;;;;;8332559;28;19913;-42
2022/07/13 22:25:32;;;;;;;;;;;27.30;40.00;;;;;;8332246;28;19927;-42
2022/07/13 22:29:51;;;;;;;;;;;27.30;40.00;;;;;;8331831;28;20382;-43
2022/07/13 22:34:11;;;;;;;;;;;27.30;40.00;;;;;;8331797;28;19951;-43
2022/07/13 22:38:30;;;;;;;;;;;27.30;40.00;;;;;;8331220;28;19924;-43
2022/07/13 22:42:49;;;;;;;;;;;27.30;40.00;;;;;;8331581;28;20004;-43
2022/07/13 22:47:08;;;;;;;;;;;27.20;40.00;;;;;;8330991;28;19924;-43
2022/07/13 22:51:27;;;;;;;;;;;27.20;40.00;;;;;;8331398;28;20416;-44
2022/07/13 22:55:46;;;;;;;;;;;27.30;40.00;;;;;;8330293;28;19923;-42
2022/07/13 23:00:06;;;;;;;;;;;27.20;40.00;;;;;;8331746;28;19913;-44
2022/07/13 23:04:25;;;;;;;;;;;27.30;40.10;;;;;;8331217;28;19917;-43
2022/07/13 23:08:44;;;;;;;;;;;27.20;40.00;;;;;;8330296;28;19940;-43
2022/07/13 23:13:03;;;;;;;;;;;27.20;40.00;;;;;;8330932;28;19975;-44
2022/07/13 23:17:22;;;;;;;;;;;27.20;40.00;;;;;;8330181;28;20285;-43
2022/07/13 23:21:41;;;;;;;;;;;27.20;40.00;;;;;;8330597;28;20440;-43
2022/07/13 23:26:00;;;;;;;;;;;27.20;40.00;;;;;;8330099;28;20371;-43
2022/07/13 23:30:06;;;;;;;;;;;27.20;40.00;;;;;;8330600;28;19931;-43
2022/07/13 23:34:07;;;;;;;;;;;27.20;40.00;;;;;;8330596;28;19944;-43
2022/07/13 23:38:07;;;;;;;;;;;27.20;40.00;;;;;;8338893;28;19924;-43
2022/07/13 23:42:09;;;;;;;;;;;27.20;40.00;;;;;;8351790;28;19924;-43
2022/07/13 23:46:09;;;;;;;;;;;27.10;40.00;;;;;;8330243;28;19917;-45
2022/07/13 23:50:10;;;;;;;;;;;27.20;40.00;;;;;;8329841;28;19929;-44
2022/07/13 23:54:10;;;;;;;;;;;27.20;40.10;;;;;;8330125;28;19921;-44